sensor_id;sensor_type;location;lat;lon;timestamp;P1;durP1;ratioP1;P2;durP2;ratioP2
53877;SDS011;39790;53.144;6.424;2022-07-29T00:00:11;2.78;;;1.65;;
53877;SDS011;39790;53.144;6.424;2022-07-29T00:02:37;2.40;;;1.40;;
53877;SDS011;39790;53.144;6.424;2022-07-29T00:05:03;3.28;;;1.67;;
53877;SDS011;39790;53.144;6.424;2022-07-29T00:07:29;5.20;;;1.60;;
53877;SDS011;39790;53.144;6.424;2022-07-29T00:09:55;3.63;;;1.50;;
53877;SDS011;39790;53.144;6.424;2022-07-29T00:12:22;5.55;;;1.33;;
53877;SDS011;39790;53.144;6.424;2022-07-29T00:14:49;2.55;;;1.30;;
53877;SDS011;39790;53.144;6.424;2022-07-29T00:17:15;4.10;;;1.30;;
53877;SDS011;39790;53.144;6.424;2022-07-29T00:19:40;4.05;;;1.50;;
53877;SDS011;39790;53.144;6.424;2022-07-29T00:22:06;4.65;;;1.50;;
53877;SDS011;39790;53.144;6.424;2022-07-29T00:24:32;3.25;;;1.50;;
53877;SDS011;39790;53.144;6.424;2022-07-29T00:26:58;3.38;;;1.48;;
53877;SDS011;39790;53.144;6.424;2022-07-29T00:29:23;2.25;;;1.25;;
53877;SDS011;39790;53.144;6.424;2022-07-29T00:31:49;2.10;;;1.38;;
53877;SDS011;39790;53.144;6.424;2022-07-29T00:34:15;3.35;;;1.40;;
53877;SDS011;39790;53.144;6.424;2022-07-29T00:39:25;2.20;;;1.27;;
53877;SDS011;39790;53.144;6.424;2022-07-29T00:41:51;3.28;;;1.75;;
53877;SDS011;39790;53.144;6.424;2022-07-29T00:44:16;5.40;;;1.80;;
53877;SDS011;39790;53.144;6.424;2022-07-29T00:46:42;3.65;;;1.48;;
53877;SDS011;39790;53.144;6.424;2022-07-29T00:49:08;3.25;;;1.52;;
53877;SDS011;39790;53.144;6.424;2022-07-29T00:51:37;3.30;;;1.38;;
53877;SDS011;39790;53.144;6.424;2022-07-29T00:54:03;3.70;;;1.20;;
53877;SDS011;39790;53.144;6.424;2022-07-29T00:56:30;2.38;;;1.45;;
53877;SDS011;39790;53.144;6.424;2022-07-29T00:58:57;2.55;;;1.40;;
53877;SDS011;39790;53.144;6.424;2022-07-29T01:01:24;5.18;;;1.60;;
53877;SDS011;39790;53.144;6.424;2022-07-29T01:03:50;2.85;;;1.30;;
53877;SDS011;39790;53.144;6.424;2022-07-29T01:06:16;3.50;;;1.50;;
53877;SDS011;39790;53.144;6.424;2022-07-29T01:08:43;7.60;;;1.58;;
53877;SDS011;39790;53.144;6.424;2022-07-29T01:11:10;4.53;;;1.60;;
53877;SDS011;39790;53.144;6.424;2022-07-29T01:13:36;3.10;;;1.90;;
53877;SDS011;39790;53.144;6.424;2022-07-29T01:16:03;5.55;;;1.52;;
53877;SDS011;39790;53.144;6.424;2022-07-29T01:18:37;2.88;;;1.63;;
53877;SDS011;39790;53.144;6.424;2022-07-29T01:21:33;4.45;;;1.40;;
53877;SDS011;39790;53.144;6.424;2022-07-29T01:32:26;2.95;;;1.33;;
53877;SDS011;39790;53.144;6.424;2022-07-29T01:37:57;3.40;;;1.70;;
53877;SDS011;39790;53.144;6.424;2022-07-29T01:40:34;5.68;;;2.08;;
53877;SDS011;39790;53.144;6.424;2022-07-29T01:43:14;3.85;;;1.73;;
53877;SDS011;39790;53.144;6.424;2022-07-29T01:46:01;5.90;;;1.90;;
53877;SDS011;39790;53.144;6.424;2022-07-29T01:48:32;3.42;;;1.88;;
53877;SDS011;39790;53.144;6.424;2022-07-29T01:51:07;3.55;;;1.73;;
53877;SDS011;39790;53.144;6.424;2022-07-29T01:53:47;3.67;;;1.92;;
53877;SDS011;39790;53.144;6.424;2022-07-29T01:56:20;3.05;;;1.60;;
53877;SDS011;39790;53.144;6.424;2022-07-29T01:58:47;4.72;;;1.60;;
53877;SDS011;39790;53.144;6.424;2022-07-29T02:01:15;3.00;;;1.58;;
53877;SDS011;39790;53.144;6.424;2022-07-29T02:03:43;3.70;;;1.50;;
53877;SDS011;39790;53.144;6.424;2022-07-29T02:06:11;3.78;;;1.75;;
53877;SDS011;39790;53.144;6.424;2022-07-29T02:08:40;3.17;;;1.98;;
53877;SDS011;39790;53.144;6.424;2022-07-29T02:11:06;3.63;;;1.70;;
53877;SDS011;39790;53.144;6.424;2022-07-29T02:13:33;5.07;;;1.75;;
53877;SDS011;39790;53.144;6.424;2022-07-29T02:16:00;3.55;;;1.90;;
53877;SDS011;39790;53.144;6.424;2022-07-29T02:18:29;2.55;;;1.50;;
53877;SDS011;39790;53.144;6.424;2022-07-29T02:20:55;3.35;;;1.60;;
53877;SDS011;39790;53.144;6.424;2022-07-29T02:23:23;4.43;;;1.55;;
53877;SDS011;39790;53.144;6.424;2022-07-29T02:25:55;2.55;;;1.63;;
53877;SDS011;39790;53.144;6.424;2022-07-29T02:28:22;5.20;;;1.42;;
53877;SDS011;39790;53.144;6.424;2022-07-29T02:30:50;3.80;;;1.70;;
53877;SDS011;39790;53.144;6.424;2022-07-29T02:33:18;5.60;;;1.70;;
53877;SDS011;39790;53.144;6.424;2022-07-29T02:35:46;2.33;;;1.48;;
53877;SDS011;39790;53.144;6.424;2022-07-29T02:38:16;7.20;;;1.98;;
53877;SDS011;39790;53.144;6.424;2022-07-29T02:41:08;3.20;;;1.73;;
53877;SDS011;39790;53.144;6.424;2022-07-29T02:43:36;4.20;;;1.70;;
53877;SDS011;39790;53.144;6.424;2022-07-29T02:46:04;5.55;;;1.65;;
53877;SDS011;39790;53.144;6.424;2022-07-29T02:48:37;7.22;;;1.88;;
53877;SDS011;39790;53.144;6.424;2022-07-29T02:51:53;3.13;;;1.75;;
53877;SDS011;39790;53.144;6.424;2022-07-29T02:53:54;3.65;;;1.40;;
53877;SDS011;39790;53.144;6.424;2022-07-29T02:56:23;2.85;;;1.58;;
53877;SDS011;39790;53.144;6.424;2022-07-29T02:58:57;4.68;;;1.45;;
53877;SDS011;39790;53.144;6.424;2022-07-29T03:01:25;3.58;;;1.58;;
53877;SDS011;39790;53.144;6.424;2022-07-29T03:03:56;3.30;;;1.52;;
53877;SDS011;39790;53.144;6.424;2022-07-29T03:06:26;3.92;;;1.50;;
53877;SDS011;39790;53.144;6.424;2022-07-29T03:08:53;2.25;;;1.20;;
53877;SDS011;39790;53.144;6.424;2022-07-29T03:11:20;5.20;;;1.70;;
53877;SDS011;39790;53.144;6.424;2022-07-29T03:13:46;2.72;;;1.40;;
53877;SDS011;39790;53.144;6.424;2022-07-29T03:16:12;2.53;;;1.67;;
53877;SDS011;39790;53.144;6.424;2022-07-29T03:18:38;4.10;;;1.40;;
53877;SDS011;39790;53.144;6.424;2022-07-29T03:21:04;4.53;;;1.73;;
53877;SDS011;39790;53.144;6.424;2022-07-29T03:23:30;2.97;;;1.20;;
53877;SDS011;39790;53.144;6.424;2022-07-29T03:25:56;2.83;;;1.50;;
53877;SDS011;39790;53.144;6.424;2022-07-29T03:28:22;3.22;;;1.65;;
53877;SDS011;39790;53.144;6.424;2022-07-29T03:30:48;3.63;;;1.50;;
53877;SDS011;39790;53.144;6.424;2022-07-29T03:33:13;3.40;;;1.70;;
53877;SDS011;39790;53.144;6.424;2022-07-29T03:35:39;3.10;;;1.52;;
53877;SDS011;39790;53.144;6.424;2022-07-29T03:38:05;3.60;;;1.50;;
53877;SDS011;39790;53.144;6.424;2022-07-29T03:40:32;5.38;;;1.60;;
53877;SDS011;39790;53.144;6.424;2022-07-29T03:43:03;6.40;;;1.65;;
53877;SDS011;39790;53.144;6.424;2022-07-29T03:45:30;6.38;;;2.10;;
53877;SDS011;39790;53.144;6.424;2022-07-29T03:47:59;3.75;;;1.65;;
53877;SDS011;39790;53.144;6.424;2022-07-29T03:50:29;3.42;;;1.80;;
53877;SDS011;39790;53.144;6.424;2022-07-29T03:52:55;4.43;;;1.50;;
53877;SDS011;39790;53.144;6.424;2022-07-29T03:55:21;5.22;;;1.77;;
53877;SDS011;39790;53.144;6.424;2022-07-29T03:57:47;3.22;;;1.52;;
53877;SDS011;39790;53.144;6.424;2022-07-29T04:00:14;7.45;;;1.75;;
53877;SDS011;39790;53.144;6.424;2022-07-29T04:02:41;3.58;;;1.58;;
53877;SDS011;39790;53.144;6.424;2022-07-29T04:05:12;3.72;;;1.25;;
53877;SDS011;39790;53.144;6.424;2022-07-29T04:07:38;3.03;;;1.50;;
53877;SDS011;39790;53.144;6.424;2022-07-29T04:10:04;2.40;;;1.40;;
53877;SDS011;39790;53.144;6.424;2022-07-29T04:12:30;3.50;;;1.55;;
53877;SDS011;39790;53.144;6.424;2022-07-29T04:14:55;3.03;;;1.63;;
53877;SDS011;39790;53.144;6.424;2022-07-29T04:17:21;3.28;;;1.70;;
53877;SDS011;39790;53.144;6.424;2022-07-29T04:19:46;4.10;;;1.88;;
53877;SDS011;39790;53.144;6.424;2022-07-29T04:22:12;6.65;;;1.77;;
53877;SDS011;39790;53.144;6.424;2022-07-29T04:24:38;3.60;;;1.70;;
53877;SDS011;39790;53.144;6.424;2022-07-29T04:27:03;3.17;;;1.70;;
53877;SDS011;39790;53.144;6.424;2022-07-29T04:29:29;4.68;;;1.92;;
53877;SDS011;39790;53.144;6.424;2022-07-29T04:31:54;3.83;;;1.80;;
53877;SDS011;39790;53.144;6.424;2022-07-29T04:34:20;6.95;;;2.15;;
53877;SDS011;39790;53.144;6.424;2022-07-29T04:36:45;3.80;;;1.80;;
53877;SDS011;39790;53.144;6.424;2022-07-29T04:39:11;6.55;;;1.73;;
53877;SDS011;39790;53.144;6.424;2022-07-29T04:41:37;4.28;;;1.80;;
53877;SDS011;39790;53.144;6.424;2022-07-29T04:44:02;6.55;;;1.80;;
53877;SDS011;39790;53.144;6.424;2022-07-29T04:46:30;5.10;;;1.85;;
53877;SDS011;39790;53.144;6.424;2022-07-29T04:48:56;4.72;;;1.73;;
53877;SDS011;39790;53.144;6.424;2022-07-29T04:51:22;5.00;;;1.70;;
53877;SDS011;39790;53.144;6.424;2022-07-29T04:53:47;2.83;;;1.70;;
53877;SDS011;39790;53.144;6.424;2022-07-29T04:56:13;3.45;;;2.03;;
53877;SDS011;39790;53.144;6.424;2022-07-29T04:58:38;7.18;;;1.95;;
53877;SDS011;39790;53.144;6.424;2022-07-29T05:01:04;2.97;;;1.45;;
53877;SDS011;39790;53.144;6.424;2022-07-29T05:03:30;4.75;;;1.77;;
53877;SDS011;39790;53.144;6.424;2022-07-29T05:05:55;4.35;;;1.85;;
53877;SDS011;39790;53.144;6.424;2022-07-29T05:08:21;2.85;;;1.70;;
53877;SDS011;39790;53.144;6.424;2022-07-29T05:10:47;4.80;;;1.77;;
53877;SDS011;39790;53.144;6.424;2022-07-29T05:13:12;3.72;;;1.83;;
53877;SDS011;39790;53.144;6.424;2022-07-29T05:15:38;4.78;;;1.48;;
53877;SDS011;39790;53.144;6.424;2022-07-29T05:18:04;3.85;;;1.80;;
53877;SDS011;39790;53.144;6.424;2022-07-29T05:20:30;5.05;;;2.03;;
53877;SDS011;39790;53.144;6.424;2022-07-29T05:22:57;2.83;;;1.67;;
53877;SDS011;39790;53.144;6.424;2022-07-29T05:25:24;5.43;;;1.40;;
53877;SDS011;39790;53.144;6.424;2022-07-29T05:27:50;5.97;;;1.67;;
53877;SDS011;39790;53.144;6.424;2022-07-29T05:30:16;3.80;;;1.88;;
53877;SDS011;39790;53.144;6.424;2022-07-29T05:32:41;4.25;;;1.63;;
53877;SDS011;39790;53.144;6.424;2022-07-29T05:35:07;10.90;;;2.30;;
53877;SDS011;39790;53.144;6.424;2022-07-29T05:37:33;10.00;;;1.92;;
53877;SDS011;39790;53.144;6.424;2022-07-29T05:39:59;5.47;;;1.90;;
53877;SDS011;39790;53.144;6.424;2022-07-29T05:42:25;6.15;;;1.75;;
53877;SDS011;39790;53.144;6.424;2022-07-29T05:44:51;8.45;;;1.88;;
53877;SDS011;39790;53.144;6.424;2022-07-29T05:47:18;4.47;;;2.10;;
53877;SDS011;39790;53.144;6.424;2022-07-29T05:49:44;5.22;;;1.83;;
53877;SDS011;39790;53.144;6.424;2022-07-29T05:52:11;5.63;;;1.95;;
53877;SDS011;39790;53.144;6.424;2022-07-29T05:54:38;9.77;;;1.98;;
53877;SDS011;39790;53.144;6.424;2022-07-29T05:57:04;6.75;;;1.88;;
53877;SDS011;39790;53.144;6.424;2022-07-29T05:59:30;6.32;;;2.35;;
53877;SDS011;39790;53.144;6.424;2022-07-29T06:01:59;8.15;;;2.45;;
53877;SDS011;39790;53.144;6.424;2022-07-29T06:04:25;16.50;;;3.58;;
53877;SDS011;39790;53.144;6.424;2022-07-29T06:07:21;10.95;;;3.10;;
53877;SDS011;39790;53.144;6.424;2022-07-29T06:10:17;4.65;;;1.92;;
53877;SDS011;39790;53.144;6.424;2022-07-29T06:12:44;10.00;;;2.50;;
53877;SDS011;39790;53.144;6.424;2022-07-29T06:15:09;7.60;;;1.90;;
53877;SDS011;39790;53.144;6.424;2022-07-29T06:17:35;8.43;;;2.05;;
53877;SDS011;39790;53.144;6.424;2022-07-29T06:20:01;6.93;;;2.70;;
53877;SDS011;39790;53.144;6.424;2022-07-29T06:22:27;5.30;;;1.80;;
53877;SDS011;39790;53.144;6.424;2022-07-29T06:24:53;4.72;;;1.88;;
53877;SDS011;39790;53.144;6.424;2022-07-29T06:27:19;4.43;;;1.45;;
53877;SDS011;39790;53.144;6.424;2022-07-29T06:29:45;9.27;;;2.53;;
53877;SDS011;39790;53.144;6.424;2022-07-29T06:32:10;5.53;;;2.30;;
53877;SDS011;39790;53.144;6.424;2022-07-29T06:34:36;5.18;;;1.83;;
53877;SDS011;39790;53.144;6.424;2022-07-29T06:37:06;7.38;;;1.98;;
53877;SDS011;39790;53.144;6.424;2022-07-29T06:39:33;2.63;;;1.52;;
53877;SDS011;39790;53.144;6.424;2022-07-29T06:42:00;3.50;;;1.70;;
53877;SDS011;39790;53.144;6.424;2022-07-29T06:44:26;5.25;;;1.75;;
53877;SDS011;39790;53.144;6.424;2022-07-29T06:46:52;5.75;;;1.60;;
53877;SDS011;39790;53.144;6.424;2022-07-29T06:49:18;8.27;;;1.90;;
53877;SDS011;39790;53.144;6.424;2022-07-29T06:51:43;4.40;;;2.05;;
53877;SDS011;39790;53.144;6.424;2022-07-29T06:54:09;4.40;;;1.52;;
53877;SDS011;39790;53.144;6.424;2022-07-29T06:56:34;3.92;;;1.60;;
53877;SDS011;39790;53.144;6.424;2022-07-29T06:59:03;5.38;;;1.98;;
53877;SDS011;39790;53.144;6.424;2022-07-29T07:01:30;3.28;;;1.60;;
53877;SDS011;39790;53.144;6.424;2022-07-29T07:03:55;5.18;;;1.88;;
53877;SDS011;39790;53.144;6.424;2022-07-29T07:06:21;3.72;;;1.75;;
53877;SDS011;39790;53.144;6.424;2022-07-29T07:08:47;4.22;;;1.73;;
53877;SDS011;39790;53.144;6.424;2022-07-29T07:11:12;3.75;;;1.92;;
53877;SDS011;39790;53.144;6.424;2022-07-29T07:13:38;3.28;;;1.65;;
53877;SDS011;39790;53.144;6.424;2022-07-29T07:16:03;3.65;;;1.60;;
53877;SDS011;39790;53.144;6.424;2022-07-29T07:18:29;4.28;;;1.80;;
53877;SDS011;39790;53.144;6.424;2022-07-29T07:20:55;4.90;;;1.73;;
53877;SDS011;39790;53.144;6.424;2022-07-29T07:23:21;4.88;;;1.70;;
53877;SDS011;39790;53.144;6.424;2022-07-29T07:25:47;5.90;;;2.10;;
53877;SDS011;39790;53.144;6.424;2022-07-29T07:28:13;2.95;;;1.48;;
53877;SDS011;39790;53.144;6.424;2022-07-29T07:30:39;4.25;;;1.70;;
53877;SDS011;39790;53.144;6.424;2022-07-29T07:33:05;3.35;;;1.60;;
53877;SDS011;39790;53.144;6.424;2022-07-29T07:35:30;4.18;;;2.00;;
53877;SDS011;39790;53.144;6.424;2022-07-29T07:37:56;5.70;;;1.60;;
53877;SDS011;39790;53.144;6.424;2022-07-29T07:40:22;4.72;;;1.98;;
53877;SDS011;39790;53.144;6.424;2022-07-29T07:42:48;8.15;;;2.13;;
53877;SDS011;39790;53.144;6.424;2022-07-29T07:45:13;4.50;;;1.60;;
53877;SDS011;39790;53.144;6.424;2022-07-29T07:47:39;9.10;;;2.53;;
53877;SDS011;39790;53.144;6.424;2022-07-29T07:50:05;5.97;;;2.10;;
53877;SDS011;39790;53.144;6.424;2022-07-29T07:52:33;8.93;;;2.22;;
53877;SDS011;39790;53.144;6.424;2022-07-29T07:54:58;6.90;;;2.38;;
53877;SDS011;39790;53.144;6.424;2022-07-29T07:57:25;8.30;;;2.85;;
53877;SDS011;39790;53.144;6.424;2022-07-29T07:59:50;3.72;;;1.80;;
53877;SDS011;39790;53.144;6.424;2022-07-29T08:02:16;7.00;;;2.45;;
53877;SDS011;39790;53.144;6.424;2022-07-29T08:04:41;3.30;;;1.70;;
53877;SDS011;39790;53.144;6.424;2022-07-29T08:07:07;7.95;;;1.73;;
53877;SDS011;39790;53.144;6.424;2022-07-29T08:09:34;3.78;;;2.10;;
53877;SDS011;39790;53.144;6.424;2022-07-29T08:12:00;3.65;;;1.80;;
53877;SDS011;39790;53.144;6.424;2022-07-29T08:14:29;5.68;;;1.70;;
53877;SDS011;39790;53.144;6.424;2022-07-29T08:16:55;8.75;;;2.47;;
53877;SDS011;39790;53.144;6.424;2022-07-29T08:19:21;3.45;;;1.90;;
53877;SDS011;39790;53.144;6.424;2022-07-29T08:21:46;4.95;;;1.80;;
53877;SDS011;39790;53.144;6.424;2022-07-29T08:24:12;5.82;;;2.45;;
53877;SDS011;39790;53.144;6.424;2022-07-29T08:27:16;3.53;;;2.13;;
53877;SDS011;39790;53.144;6.424;2022-07-29T08:29:42;5.55;;;1.77;;
53877;SDS011;39790;53.144;6.424;2022-07-29T08:32:08;4.50;;;1.90;;
53877;SDS011;39790;53.144;6.424;2022-07-29T08:34:33;8.10;;;2.08;;
53877;SDS011;39790;53.144;6.424;2022-07-29T08:36:59;4.60;;;1.90;;
53877;SDS011;39790;53.144;6.424;2022-07-29T08:39:25;3.33;;;1.80;;
53877;SDS011;39790;53.144;6.424;2022-07-29T08:41:51;6.38;;;2.17;;
53877;SDS011;39790;53.144;6.424;2022-07-29T08:44:18;7.20;;;2.22;;
53877;SDS011;39790;53.144;6.424;2022-07-29T08:46:44;5.78;;;1.73;;
53877;SDS011;39790;53.144;6.424;2022-07-29T08:49:10;3.92;;;1.75;;
53877;SDS011;39790;53.144;6.424;2022-07-29T08:51:36;6.28;;;2.20;;
53877;SDS011;39790;53.144;6.424;2022-07-29T08:54:04;3.75;;;1.90;;
53877;SDS011;39790;53.144;6.424;2022-07-29T08:56:30;4.93;;;1.98;;
53877;SDS011;39790;53.144;6.424;2022-07-29T08:58:58;5.00;;;2.28;;
53877;SDS011;39790;53.144;6.424;2022-07-29T09:01:25;3.80;;;1.85;;
53877;SDS011;39790;53.144;6.424;2022-07-29T09:03:56;3.45;;;1.77;;
53877;SDS011;39790;53.144;6.424;2022-07-29T09:06:26;3.60;;;2.42;;
53877;SDS011;39790;53.144;6.424;2022-07-29T09:08:58;3.97;;;1.67;;
53877;SDS011;39790;53.144;6.424;2022-07-29T09:11:25;5.85;;;1.98;;
53877;SDS011;39790;53.144;6.424;2022-07-29T09:13:51;3.55;;;2.08;;
53877;SDS011;39790;53.144;6.424;2022-07-29T09:16:17;5.63;;;1.90;;
53877;SDS011;39790;53.144;6.424;2022-07-29T09:18:43;4.70;;;2.22;;
53877;SDS011;39790;53.144;6.424;2022-07-29T09:21:14;6.68;;;2.35;;
53877;SDS011;39790;53.144;6.424;2022-07-29T09:26:32;4.57;;;2.20;;
53877;SDS011;39790;53.144;6.424;2022-07-29T09:29:10;3.67;;;2.03;;
53877;SDS011;39790;53.144;6.424;2022-07-29T09:31:37;6.50;;;2.30;;
53877;SDS011;39790;53.144;6.424;2022-07-29T09:34:05;3.50;;;1.75;;
53877;SDS011;39790;53.144;6.424;2022-07-29T09:36:31;5.50;;;2.17;;
53877;SDS011;39790;53.144;6.424;2022-07-29T09:39:14;4.63;;;2.42;;
53877;SDS011;39790;53.144;6.424;2022-07-29T09:42:00;4.22;;;1.90;;
53877;SDS011;39790;53.144;6.424;2022-07-29T09:44:41;3.55;;;1.90;;
53877;SDS011;39790;53.144;6.424;2022-07-29T09:47:07;7.20;;;2.53;;
53877;SDS011;39790;53.144;6.424;2022-07-29T09:49:49;5.63;;;2.10;;
53877;SDS011;39790;53.144;6.424;2022-07-29T09:52:20;6.72;;;2.58;;
53877;SDS011;39790;53.144;6.424;2022-07-29T09:54:46;5.35;;;2.67;;
53877;SDS011;39790;53.144;6.424;2022-07-29T09:57:27;4.70;;;2.25;;
53877;SDS011;39790;53.144;6.424;2022-07-29T10:00:04;9.23;;;2.70;;
53877;SDS011;39790;53.144;6.424;2022-07-29T10:02:33;5.38;;;2.20;;
53877;SDS011;39790;53.144;6.424;2022-07-29T10:05:01;6.95;;;2.83;;
53877;SDS011;39790;53.144;6.424;2022-07-29T10:10:17;5.60;;;2.65;;
53877;SDS011;39790;53.144;6.424;2022-07-29T10:12:51;5.60;;;2.33;;
53877;SDS011;39790;53.144;6.424;2022-07-29T10:15:17;5.28;;;2.20;;
53877;SDS011;39790;53.144;6.424;2022-07-29T10:17:43;3.85;;;2.17;;
53877;SDS011;39790;53.144;6.424;2022-07-29T10:20:10;5.35;;;2.10;;
53877;SDS011;39790;53.144;6.424;2022-07-29T10:22:35;7.85;;;2.60;;
53877;SDS011;39790;53.144;6.424;2022-07-29T10:25:02;4.97;;;2.20;;
53877;SDS011;39790;53.144;6.424;2022-07-29T10:27:28;4.55;;;2.70;;
53877;SDS011;39790;53.144;6.424;2022-07-29T10:29:54;7.75;;;2.60;;
53877;SDS011;39790;53.144;6.424;2022-07-29T10:43:41;3.88;;;2.10;;
53877;SDS011;39790;53.144;6.424;2022-07-29T10:46:08;5.85;;;2.45;;
53877;SDS011;39790;53.144;6.424;2022-07-29T10:48:44;7.18;;;2.75;;
53877;SDS011;39790;53.144;6.424;2022-07-29T10:52:13;5.13;;;2.58;;
53877;SDS011;39790;53.144;6.424;2022-07-29T10:54:42;11.60;;;2.72;;
53877;SDS011;39790;53.144;6.424;2022-07-29T11:05:10;6.10;;;2.67;;
53877;SDS011;39790;53.144;6.424;2022-07-29T11:10:39;3.75;;;1.95;;
53877;SDS011;39790;53.144;6.424;2022-07-29T11:13:05;7.10;;;2.53;;
53877;SDS011;39790;53.144;6.424;2022-07-29T11:18:17;6.28;;;2.50;;
53877;SDS011;39790;53.144;6.424;2022-07-29T11:20:44;4.55;;;2.22;;
53877;SDS011;39790;53.144;6.424;2022-07-29T11:34:23;5.40;;;2.80;;
53877;SDS011;39790;53.144;6.424;2022-07-29T11:39:34;8.32;;;2.58;;
53877;SDS011;39790;53.144;6.424;2022-07-29T11:47:21;5.40;;;2.53;;
53877;SDS011;39790;53.144;6.424;2022-07-29T11:49:47;6.35;;;2.50;;
53877;SDS011;39790;53.144;6.424;2022-07-29T11:52:13;10.88;;;2.63;;
53877;SDS011;39790;53.144;6.424;2022-07-29T11:54:39;5.13;;;2.50;;
53877;SDS011;39790;53.144;6.424;2022-07-29T11:57:07;6.28;;;2.60;;
53877;SDS011;39790;53.144;6.424;2022-07-29T11:59:38;7.68;;;2.90;;
53877;SDS011;39790;53.144;6.424;2022-07-29T12:02:06;5.70;;;2.50;;
53877;SDS011;39790;53.144;6.424;2022-07-29T12:04:33;7.32;;;2.60;;
53877;SDS011;39790;53.144;6.424;2022-07-29T12:06:59;6.95;;;2.80;;
53877;SDS011;39790;53.144;6.424;2022-07-29T12:09:25;7.88;;;2.38;;
53877;SDS011;39790;53.144;6.424;2022-07-29T12:11:57;5.35;;;2.38;;
53877;SDS011;39790;53.144;6.424;2022-07-29T12:14:24;9.50;;;2.47;;
53877;SDS011;39790;53.144;6.424;2022-07-29T12:16:57;6.60;;;2.47;;
53877;SDS011;39790;53.144;6.424;2022-07-29T12:19:24;7.50;;;2.70;;
53877;SDS011;39790;53.144;6.424;2022-07-29T12:21:51;8.55;;;2.67;;
53877;SDS011;39790;53.144;6.424;2022-07-29T12:24:19;7.78;;;2.83;;
53877;SDS011;39790;53.144;6.424;2022-07-29T12:26:56;5.63;;;2.42;;
53877;SDS011;39790;53.144;6.424;2022-07-29T12:29:23;4.57;;;2.55;;
53877;SDS011;39790;53.144;6.424;2022-07-29T12:31:53;4.82;;;1.90;;
53877;SDS011;39790;53.144;6.424;2022-07-29T12:34:19;4.85;;;2.67;;
53877;SDS011;39790;53.144;6.424;2022-07-29T12:36:47;4.30;;;2.30;;
53877;SDS011;39790;53.144;6.424;2022-07-29T12:39:16;7.03;;;2.97;;
53877;SDS011;39790;53.144;6.424;2022-07-29T12:41:43;6.03;;;2.28;;
53877;SDS011;39790;53.144;6.424;2022-07-29T12:44:09;5.00;;;2.70;;
53877;SDS011;39790;53.144;6.424;2022-07-29T12:46:35;5.72;;;2.42;;
53877;SDS011;39790;53.144;6.424;2022-07-29T12:49:01;5.57;;;2.53;;
53877;SDS011;39790;53.144;6.424;2022-07-29T12:54:03;5.53;;;2.20;;
53877;SDS011;39790;53.144;6.424;2022-07-29T12:56:29;5.18;;;2.13;;
53877;SDS011;39790;53.144;6.424;2022-07-29T12:58:54;3.85;;;1.90;;
53877;SDS011;39790;53.144;6.424;2022-07-29T13:01:20;7.43;;;2.33;;
53877;SDS011;39790;53.144;6.424;2022-07-29T13:03:48;4.15;;;2.03;;
53877;SDS011;39790;53.144;6.424;2022-07-29T13:09:08;5.28;;;2.15;;
53877;SDS011;39790;53.144;6.424;2022-07-29T13:14:01;4.10;;;1.88;;
53877;SDS011;39790;53.144;6.424;2022-07-29T13:16:27;6.32;;;2.17;;
53877;SDS011;39790;53.144;6.424;2022-07-29T13:19:09;6.60;;;2.25;;
53877;SDS011;39790;53.144;6.424;2022-07-29T13:21:37;7.75;;;2.08;;
53877;SDS011;39790;53.144;6.424;2022-07-29T13:24:06;3.20;;;1.83;;
53877;SDS011;39790;53.144;6.424;2022-07-29T13:26:32;3.60;;;2.30;;
53877;SDS011;39790;53.144;6.424;2022-07-29T13:28:57;4.05;;;1.85;;
53877;SDS011;39790;53.144;6.424;2022-07-29T13:31:23;4.25;;;2.00;;
53877;SDS011;39790;53.144;6.424;2022-07-29T13:33:49;7.78;;;1.88;;
53877;SDS011;39790;53.144;6.424;2022-07-29T13:36:14;8.10;;;2.13;;
53877;SDS011;39790;53.144;6.424;2022-07-29T13:38:40;4.28;;;2.65;;
53877;SDS011;39790;53.144;6.424;2022-07-29T13:41:06;5.13;;;2.25;;
53877;SDS011;39790;53.144;6.424;2022-07-29T13:43:32;10.02;;;2.47;;
53877;SDS011;39790;53.144;6.424;2022-07-29T13:45:58;6.10;;;2.40;;
53877;SDS011;39790;53.144;6.424;2022-07-29T13:48:23;5.32;;;2.28;;
53877;SDS011;39790;53.144;6.424;2022-07-29T13:50:49;4.40;;;1.95;;
53877;SDS011;39790;53.144;6.424;2022-07-29T13:53:14;5.55;;;2.20;;
53877;SDS011;39790;53.144;6.424;2022-07-29T13:55:40;8.88;;;2.08;;
53877;SDS011;39790;53.144;6.424;2022-07-29T13:58:05;4.93;;;2.10;;
53877;SDS011;39790;53.144;6.424;2022-07-29T14:00:31;5.20;;;1.85;;
53877;SDS011;39790;53.144;6.424;2022-07-29T14:02:56;5.22;;;1.80;;
53877;SDS011;39790;53.144;6.424;2022-07-29T14:05:22;5.38;;;1.70;;
53877;SDS011;39790;53.144;6.424;2022-07-29T14:07:48;6.00;;;2.33;;
53877;SDS011;39790;53.144;6.424;2022-07-29T14:10:13;4.78;;;2.45;;
53877;SDS011;39790;53.144;6.424;2022-07-29T14:12:39;6.32;;;2.20;;
53877;SDS011;39790;53.144;6.424;2022-07-29T14:15:07;4.22;;;2.20;;
53877;SDS011;39790;53.144;6.424;2022-07-29T14:17:32;5.00;;;2.17;;
53877;SDS011;39790;53.144;6.424;2022-07-29T14:19:58;3.97;;;2.33;;
53877;SDS011;39790;53.144;6.424;2022-07-29T14:22:24;9.23;;;2.13;;
53877;SDS011;39790;53.144;6.424;2022-07-29T14:24:50;4.57;;;2.22;;
53877;SDS011;39790;53.144;6.424;2022-07-29T14:27:15;5.10;;;1.90;;
53877;SDS011;39790;53.144;6.424;2022-07-29T14:29:41;5.85;;;2.42;;
53877;SDS011;39790;53.144;6.424;2022-07-29T14:32:07;5.40;;;2.08;;
53877;SDS011;39790;53.144;6.424;2022-07-29T14:34:35;5.13;;;1.73;;
53877;SDS011;39790;53.144;6.424;2022-07-29T14:37:03;3.38;;;1.85;;
53877;SDS011;39790;53.144;6.424;2022-07-29T14:39:33;4.15;;;1.92;;
53877;SDS011;39790;53.144;6.424;2022-07-29T14:42:00;6.28;;;1.98;;
53877;SDS011;39790;53.144;6.424;2022-07-29T14:44:26;3.55;;;1.92;;
53877;SDS011;39790;53.144;6.424;2022-07-29T14:46:55;5.05;;;2.20;;
53877;SDS011;39790;53.144;6.424;2022-07-29T14:49:25;6.03;;;2.38;;
53877;SDS011;39790;53.144;6.424;2022-07-29T14:51:51;6.35;;;2.85;;
53877;SDS011;39790;53.144;6.424;2022-07-29T14:54:17;5.05;;;2.38;;
53877;SDS011;39790;53.144;6.424;2022-07-29T14:56:43;7.05;;;2.05;;
53877;SDS011;39790;53.144;6.424;2022-07-29T14:59:08;6.65;;;2.45;;
53877;SDS011;39790;53.144;6.424;2022-07-29T15:01:34;6.18;;;2.10;;
53877;SDS011;39790;53.144;6.424;2022-07-29T15:03:59;5.82;;;2.15;;
53877;SDS011;39790;53.144;6.424;2022-07-29T15:06:25;5.05;;;1.70;;
53877;SDS011;39790;53.144;6.424;2022-07-29T15:08:51;5.43;;;1.77;;
53877;SDS011;39790;53.144;6.424;2022-07-29T15:11:17;3.30;;;1.83;;
53877;SDS011;39790;53.144;6.424;2022-07-29T15:13:45;4.82;;;2.17;;
53877;SDS011;39790;53.144;6.424;2022-07-29T15:16:13;3.67;;;1.73;;
53877;SDS011;39790;53.144;6.424;2022-07-29T15:18:39;6.25;;;3.28;;
53877;SDS011;39790;53.144;6.424;2022-07-29T15:21:05;4.60;;;1.98;;
53877;SDS011;39790;53.144;6.424;2022-07-29T15:23:33;6.32;;;2.22;;
53877;SDS011;39790;53.144;6.424;2022-07-29T15:26:04;5.53;;;2.00;;
53877;SDS011;39790;53.144;6.424;2022-07-29T15:28:30;4.80;;;1.98;;
53877;SDS011;39790;53.144;6.424;2022-07-29T15:30:56;4.53;;;1.90;;
53877;SDS011;39790;53.144;6.424;2022-07-29T15:33:21;4.28;;;2.60;;
53877;SDS011;39790;53.144;6.424;2022-07-29T15:35:49;4.35;;;2.00;;
53877;SDS011;39790;53.144;6.424;2022-07-29T15:38:15;10.05;;;2.50;;
53877;SDS011;39790;53.144;6.424;2022-07-29T15:40:41;4.82;;;2.05;;
53877;SDS011;39790;53.144;6.424;2022-07-29T15:43:08;9.93;;;2.55;;
53877;SDS011;39790;53.144;6.424;2022-07-29T15:45:35;4.15;;;2.38;;
53877;SDS011;39790;53.144;6.424;2022-07-29T15:48:03;6.55;;;2.20;;
53877;SDS011;39790;53.144;6.424;2022-07-29T15:50:30;6.70;;;2.15;;
53877;SDS011;39790;53.144;6.424;2022-07-29T15:52:55;10.75;;;2.28;;
53877;SDS011;39790;53.144;6.424;2022-07-29T15:55:21;4.25;;;2.10;;
53877;SDS011;39790;53.144;6.424;2022-07-29T15:57:48;3.80;;;2.10;;
53877;SDS011;39790;53.144;6.424;2022-07-29T16:00:13;4.50;;;1.77;;
53877;SDS011;39790;53.144;6.424;2022-07-29T16:02:41;5.15;;;1.95;;